Time;durP1;ratioP1;P1;durP2;ratioP2;P2;SDS_P1;SDS_P2;PMS_P1;PMS_P2;Temp;Humidity;BMP_temperature;BMP_pressure;BME280_temperature;BME280_humidity;BME280_pressure;Samples;Min_cycle;Max_cycle;Signal;HPM_P1;HPM_P2
2022/11/24 00:01:50;;;;;;;9.45;8.63;;;;;;;;;;4993560;28;20033;-55
2022/11/24 00:04:15;;;;;;;8.52;7.93;;;;;;;;;;4990133;28;20030;-55
2022/11/24 00:06:40;;;;;;;7.00;6.50;;;;;;;;;;4992081;28;20431;-57
2022/11/24 00:09:06;;;;;;;7.60;7.10;;;;;;;;;;4994300;28;20523;-55
2022/11/24 00:11:34;;;;;;;8.07;7.47;;;;;;;;;;4992476;28;20030;-56
2022/11/24 00:14:00;;;;;;;7.00;6.50;;;;;;;;;;4994141;28;20038;-56
2022/11/24 00:16:31;;;;;;;8.25;7.55;;;;;;;;;;4990565;28;20100;-56
2022/11/24 00:18:58;;;;;;;7.03;6.53;;;;;;;;;;4991528;28;20256;-56
2022/11/24 00:21:25;;;;;;;7.13;6.60;;;;;;;;;;4991720;28;20027;-55
2022/11/24 00:23:51;;;;;;;8.20;7.20;;;;;;;;;;4990948;28;20050;-56
2022/11/24 00:26:25;;;;;;;7.95;7.35;;;;;;;;;;4991992;28;20515;-57
2022/11/24 00:28:52;;;;;;;8.25;7.65;;;;;;;;;;4992980;28;20046;-56
2022/11/24 00:31:23;;;;;;;8.55;7.95;;;;;;;;;;4991499;28;20330;-57
2022/11/24 00:33:51;;;;;;;8.52;7.95;;;;;;;;;;4994114;28;20044;-57
2022/11/24 00:36:18;;;;;;;8.20;7.70;;;;;;;;;;4993325;28;20218;-58
2022/11/24 00:38:44;;;;;;;12.90;7.50;;;;;;;;;;4992028;28;20034;-58
2022/11/24 00:41:10;;;;;;;7.35;6.85;;;;;;;;;;4992351;28;20022;-57
2022/11/24 00:43:35;;;;;;;7.75;7.25;;;;;;;;;;4991185;28;20057;-57
2022/11/24 00:46:01;;;;;;;6.82;6.32;;;;;;;;;;4993926;28;20022;-57
2022/11/24 00:48:26;;;;;;;8.85;8.05;;;;;;;;;;4995169;28;20139;-57
2022/11/24 00:51:01;;;;;;;8.55;7.95;;;;;;;;;;4993648;28;20238;-57
2022/11/24 00:53:27;;;;;;;9.20;8.50;;;;;;;;;;4994722;28;20062;-57
2022/11/24 00:55:54;;;;;;;9.13;8.43;;;;;;;;;;4990499;28;20072;-56
2022/11/24 00:58:19;;;;;;;9.18;8.05;;;;;;;;;;4993159;28;20050;-57
2022/11/24 01:00:45;;;;;;;11.10;10.18;;;;;;;;;;4993586;28;20088;-57
2022/11/24 01:03:12;;;;;;;15.63;9.43;;;;;;;;;;4993820;28;20030;-56
2022/11/24 01:05:38;;;;;;;11.90;10.80;;;;;;;;;;4990192;28;20125;-57
2022/11/24 01:08:04;;;;;;;11.50;10.68;;;;;;;;;;4993762;28;20600;-57
2022/11/24 01:10:30;;;;;;;12.00;10.95;;;;;;;;;;4992291;28;20578;-57
2022/11/24 01:12:55;;;;;;;11.02;10.18;;;;;;;;;;4990720;28;20041;-57
2022/11/24 01:15:21;;;;;;;9.18;8.35;;;;;;;;;;4992331;28;20031;-57
2022/11/24 01:17:46;;;;;;;11.63;10.57;;;;;;;;;;4991006;28;20034;-56
2022/11/24 01:20:12;;;;;;;15.80;14.15;;;;;;;;;;4993490;28;20087;-57
2022/11/24 01:22:38;;;;;;;10.55;9.85;;;;;;;;;;4993112;28;20230;-57
2022/11/24 01:25:08;;;;;;;8.93;8.32;;;;;;;;;;4991557;28;20037;-57
2022/11/24 01:27:34;;;;;;;8.40;7.82;;;;;;;;;;4993960;28;20038;-58
2022/11/24 01:29:59;;;;;;;8.18;7.68;;;;;;;;;;4993832;28;20647;-56
2022/11/24 01:32:24;;;;;;;8.43;7.82;;;;;;;;;;4991857;28;20151;-57
2022/11/24 01:34:50;;;;;;;8.57;7.97;;;;;;;;;;4991559;28;20081;-57
2022/11/24 01:37:15;;;;;;;8.15;7.55;;;;;;;;;;4990493;28;20034;-57
2022/11/24 01:39:40;;;;;;;9.00;8.35;;;;;;;;;;4990679;28;20038;-57
2022/11/24 01:42:06;;;;;;;10.73;9.50;;;;;;;;;;4988787;28;20030;-57
2022/11/24 01:44:32;;;;;;;10.77;9.75;;;;;;;;;;4993063;28;20041;-55
2022/11/24 01:47:34;;;;;;;9.13;8.43;;;;;;;;;;4990984;28;20042;-57
2022/11/24 01:50:01;;;;;;;8.18;7.63;;;;;;;;;;4992949;28;20566;-56
2022/11/24 01:52:27;;;;;;;8.15;7.65;;;;;;;;;;4987931;28;20562;-56
2022/11/24 01:54:55;;;;;;;7.55;7.05;;;;;;;;;;4989333;28;20034;-57
2022/11/24 01:57:25;;;;;;;8.13;7.53;;;;;;;;;;4991678;28;20484;-57
2022/11/24 01:59:54;;;;;;;8.48;7.78;;;;;;;;;;4987700;28;20084;-59
2022/11/24 02:02:20;;;;;;;7.53;7.03;;;;;;;;;;4989720;28;20033;-57
2022/11/24 02:04:47;;;;;;;7.97;7.47;;;;;;;;;;4993199;28;20045;-57
2022/11/24 02:07:13;;;;;;;8.32;7.65;;;;;;;;;;4992782;28;20029;-56
2022/11/24 02:09:43;;;;;;;7.80;7.30;;;;;;;;;;4992163;28;20030;-57
2022/11/24 02:12:09;;;;;;;7.50;7.00;;;;;;;;;;4990070;28;20133;-57
2022/11/24 02:14:36;;;;;;;7.70;7.13;;;;;;;;;;4989354;28;20072;-56
2022/11/24 02:17:02;;;;;;;7.53;7.03;;;;;;;;;;4990532;28;20026;-57
2022/11/24 02:19:39;;;;;;;6.97;6.47;;;;;;;;;;4991073;28;20100;-57
2022/11/24 02:22:31;;;;;;;8.95;8.25;;;;;;;;;;4991006;28;20041;-56
2022/11/24 02:25:26;;;;;;;7.82;7.32;;;;;;;;;;4991517;28;20190;-56
2022/11/24 02:27:53;;;;;;;9.43;8.60;;;;;;;;;;4992582;28;20041;-57
2022/11/24 02:30:18;;;;;;;7.40;6.90;;;;;;;;;;4993813;28;20092;-56
2022/11/24 02:32:44;;;;;;;9.57;8.68;;;;;;;;;;4993944;28;20045;-58
2022/11/24 02:35:10;;;;;;;9.68;8.77;;;;;;;;;;4993536;28;20361;-57
2022/11/24 02:37:36;;;;;;;8.73;8.02;;;;;;;;;;4992620;28;20046;-57
2022/11/24 02:40:01;;;;;;;7.53;7.03;;;;;;;;;;4996524;28;20034;-57
2022/11/24 02:42:31;;;;;;;9.15;8.45;;;;;;;;;;4993657;28;20061;-58
2022/11/24 02:44:59;;;;;;;7.78;7.18;;;;;;;;;;4994286;28;20031;-57
2022/11/24 02:47:24;;;;;;;7.90;7.35;;;;;;;;;;4995204;28;20057;-57
2022/11/24 02:49:50;;;;;;;7.72;7.22;;;;;;;;;;4993521;28;20033;-57
2022/11/24 02:52:15;;;;;;;8.50;7.90;;;;;;;;;;4993691;28;20333;-58
2022/11/24 02:54:41;;;;;;;8.85;8.05;;;;;;;;;;4992386;28;20038;-56
2022/11/24 02:57:06;;;;;;;8.85;8.25;;;;;;;;;;4995355;28;20125;-56
2022/11/24 02:59:31;;;;;;;9.00;8.30;;;;;;;;;;4993498;28;20172;-56
2022/11/24 03:01:57;;;;;;;8.73;8.13;;;;;;;;;;4993925;28;20127;-57
2022/11/24 03:04:22;;;;;;;9.68;8.98;;;;;;;;;;4995677;28;20030;-58
2022/11/24 03:06:48;;;;;;;9.02;8.32;;;;;;;;;;4995424;28;20038;-56
2022/11/24 03:09:14;;;;;;;8.20;7.60;;;;;;;;;;4998381;28;20064;-55
2022/11/24 03:11:39;;;;;;;8.68;8.07;;;;;;;;;;4994361;28;20387;-56
2022/11/24 03:14:05;;;;;;;7.88;7.38;;;;;;;;;;4994201;28;20144;-57
2022/11/24 03:16:32;;;;;;;9.45;8.85;;;;;;;;;;4993081;28;20038;-57
2022/11/24 03:18:58;;;;;;;9.93;9.02;;;;;;;;;;4994669;28;20033;-56
2022/11/24 03:21:23;;;;;;;9.90;9.20;;;;;;;;;;4993767;28;20029;-55
2022/11/24 03:23:48;;;;;;;8.02;7.47;;;;;;;;;;4993771;28;20364;-56
2022/11/24 03:26:17;;;;;;;7.40;6.90;;;;;;;;;;4993415;28;20033;-56
2022/11/24 03:28:43;;;;;;;8.35;7.55;;;;;;;;;;4990530;28;20038;-56
2022/11/24 03:31:09;;;;;;;8.20;7.63;;;;;;;;;;4995005;28;20021;-57
2022/11/24 03:33:35;;;;;;;8.30;7.80;;;;;;;;;;4997614;28;20224;-57
2022/11/24 03:36:01;;;;;;;8.90;8.23;;;;;;;;;;4994574;28;20046;-57
2022/11/24 03:38:26;;;;;;;8.00;7.40;;;;;;;;;;4994049;28;20029;-57
2022/11/24 03:40:51;;;;;;;7.55;7.05;;;;;;;;;;4994223;28;20496;-58
2022/11/24 03:43:17;;;;;;;8.02;7.50;;;;;;;;;;4994326;28;20031;-57
2022/11/24 03:45:47;;;;;;;8.27;7.65;;;;;;;;;;4992244;28;20309;-56
2022/11/24 03:48:16;;;;;;;11.38;7.60;;;;;;;;;;4994412;28;20125;-57
2022/11/24 03:50:42;;;;;;;7.90;7.40;;;;;;;;;;4993767;28;20034;-56
2022/11/24 03:53:08;;;;;;;8.10;7.50;;;;;;;;;;4993111;28;20144;-57
2022/11/24 03:55:33;;;;;;;10.60;8.35;;;;;;;;;;4992808;28;20740;-56
2022/11/24 03:57:59;;;;;;;8.75;8.15;;;;;;;;;;4990774;28;20034;-56
2022/11/24 04:00:24;;;;;;;10.23;9.18;;;;;;;;;;4991508;28;20097;-57
2022/11/24 04:02:49;;;;;;;8.75;7.90;;;;;;;;;;4992763;28;20026;-56
2022/11/24 04:05:15;;;;;;;8.32;7.72;;;;;;;;;;4991588;28;20037;-57
2022/11/24 04:07:40;;;;;;;7.30;6.80;;;;;;;;;;4991810;28;20115;-56
2022/11/24 04:10:06;;;;;;;8.27;7.78;;;;;;;;;;4993601;28;20337;-57
2022/11/24 04:12:44;;;;;;;8.48;7.90;;;;;;;;;;4995668;28;20064;-56
2022/11/24 04:15:14;;;;;;;14.48;8.27;;;;;;;;;;4992271;28;20090;-56
2022/11/24 04:17:40;;;;;;;8.30;7.80;;;;;;;;;;4991822;28;20030;-57
2022/11/24 04:20:06;;;;;;;10.30;9.05;;;;;;;;;;4990546;28;20092;-57
2022/11/24 04:22:32;;;;;;;8.07;7.57;;;;;;;;;;5008568;28;20037;-57
2022/11/24 04:24:57;;;;;;;8.05;7.47;;;;;;;;;;4994164;28;20041;-55
2022/11/24 04:27:23;;;;;;;8.27;7.72;;;;;;;;;;4993459;28;20030;-56
2022/11/24 04:29:49;;;;;;;7.53;7.03;;;;;;;;;;4991586;28;20479;-57
2022/11/24 04:32:15;;;;;;;7.97;7.32;;;;;;;;;;4991975;28;20461;-57
2022/11/24 04:34:40;;;;;;;16.92;7.85;;;;;;;;;;4990181;28;20052;-56
2022/11/24 04:37:06;;;;;;;7.50;7.00;;;;;;;;;;4995484;28;20022;-57
2022/11/24 04:39:31;;;;;;;8.18;7.68;;;;;;;;;;4995496;28;20030;-56
2022/11/24 04:41:57;;;;;;;8.50;7.90;;;;;;;;;;4990474;28;20344;-56
2022/11/24 04:44:22;;;;;;;8.32;7.72;;;;;;;;;;4992957;28;20119;-57
2022/11/24 04:46:47;;;;;;;9.15;8.23;;;;;;;;;;4996081;28;20073;-56
2022/11/24 04:49:13;;;;;;;9.30;8.70;;;;;;;;;;4993080;28;20025;-57
2022/11/24 04:51:38;;;;;;;9.25;8.65;;;;;;;;;;4990073;28;20038;-56
2022/11/24 04:54:05;;;;;;;8.45;7.85;;;;;;;;;;4990862;28;20030;-57
2022/11/24 04:56:32;;;;;;;8.68;8.07;;;;;;;;;;4993581;28;20109;-57
2022/11/24 04:58:57;;;;;;;8.15;7.55;;;;;;;;;;4994006;28;20100;-56
2022/11/24 05:01:23;;;;;;;8.65;7.95;;;;;;;;;;4994892;28;20025;-57
2022/11/24 05:03:48;;;;;;;7.38;6.88;;;;;;;;;;4988591;28;20033;-56
2022/11/24 05:06:14;;;;;;;9.00;8.35;;;;;;;;;;4993026;28;20026;-57
2022/11/24 05:08:39;;;;;;;9.40;8.80;;;;;;;;;;4993129;28;20032;-56
2022/11/24 05:11:05;;;;;;;9.05;8.35;;;;;;;;;;4992735;28;20561;-58
2022/11/24 05:13:31;;;;;;;7.60;7.10;;;;;;;;;;4990808;28;20038;-56
2022/11/24 05:15:58;;;;;;;9.60;8.90;;;;;;;;;;4994220;28;20534;-56
2022/11/24 05:18:23;;;;;;;7.93;7.30;;;;;;;;;;4992177;28;20042;-57
2022/11/24 05:20:49;;;;;;;7.75;7.25;;;;;;;;;;4991953;28;20111;-57
2022/11/24 05:23:15;;;;;;;9.07;8.15;;;;;;;;;;4994454;28;20129;-56
2022/11/24 05:25:41;;;;;;;8.55;7.95;;;;;;;;;;4989979;28;20420;-56
2022/11/24 05:28:10;;;;;;;8.50;7.75;;;;;;;;;;4991271;28;20444;-56
2022/11/24 05:30:37;;;;;;;8.10;7.50;;;;;;;;;;4990494;28;20034;-55
2022/11/24 05:33:05;;;;;;;9.25;8.55;;;;;;;;;;4991865;28;20034;-56
2022/11/24 05:35:30;;;;;;;8.40;7.60;;;;;;;;;;4993729;28;20148;-55
2022/11/24 05:37:57;;;;;;;8.68;8.00;;;;;;;;;;4990150;28;20056;-57
2022/11/24 05:40:22;;;;;;;8.27;7.68;;;;;;;;;;4995870;28;20030;-56
2022/11/24 05:42:48;;;;;;;8.07;7.57;;;;;;;;;;4993207;28;20032;-56
2022/11/24 05:45:19;;;;;;;7.97;7.47;;;;;;;;;;4992995;28;20038;-57
2022/11/24 05:47:45;;;;;;;8.10;7.50;;;;;;;;;;4992397;28;20058;-57
2022/11/24 05:50:13;;;;;;;10.13;9.00;;;;;;;;;;4991481;28;20041;-56
2022/11/24 05:52:39;;;;;;;7.53;7.03;;;;;;;;;;4988018;28;20054;-56
2022/11/24 05:55:05;;;;;;;9.90;8.20;;;;;;;;;;4993801;28;20030;-58
2022/11/24 05:57:31;;;;;;;8.07;7.45;;;;;;;;;;4989520;28;20432;-56
2022/11/24 05:59:57;;;;;;;7.35;6.85;;;;;;;;;;4991719;28;20058;-57
2022/11/24 06:02:22;;;;;;;8.52;7.93;;;;;;;;;;4990624;28;20038;-56
2022/11/24 06:04:47;;;;;;;7.75;7.25;;;;;;;;;;4993307;28;20025;-57
2022/11/24 06:07:13;;;;;;;7.78;7.28;;;;;;;;;;4992325;28;20439;-56
2022/11/24 06:09:40;;;;;;;8.45;7.85;;;;;;;;;;4991077;28;20155;-55
2022/11/24 06:12:06;;;;;;;8.32;7.60;;;;;;;;;;4989369;28;20118;-56
2022/11/24 06:14:32;;;;;;;8.73;8.13;;;;;;;;;;4990898;28;20096;-56
2022/11/24 06:16:58;;;;;;;8.07;7.57;;;;;;;;;;4995870;28;20559;-57
2022/11/24 06:19:23;;;;;;;7.30;6.80;;;;;;;;;;4992872;28;20034;-56
2022/11/24 06:21:49;;;;;;;8.13;7.63;;;;;;;;;;4993183;28;20038;-57
2022/11/24 06:24:14;;;;;;;7.95;7.45;;;;;;;;;;4992007;28;20025;-56
2022/11/24 06:26:40;;;;;;;8.05;7.45;;;;;;;;;;4990653;28;20362;-57
2022/11/24 06:29:06;;;;;;;9.90;8.80;;;;;;;;;;4991021;28;20083;-57
2022/11/24 06:31:32;;;;;;;11.95;8.50;;;;;;;;;;4994137;28;20212;-56
2022/11/24 06:33:58;;;;;;;8.40;7.80;;;;;;;;;;4989043;28;20018;-56
2022/11/24 06:36:24;;;;;;;10.77;9.35;;;;;;;;;;4999113;28;20040;-55
2022/11/24 06:38:49;;;;;;;9.68;8.88;;;;;;;;;;4992784;28;20490;-55
2022/11/24 06:41:15;;;;;;;8.40;7.82;;;;;;;;;;4991261;28;20034;-56
2022/11/24 06:43:41;;;;;;;7.85;7.15;;;;;;;;;;4991964;28;20029;-56
2022/11/24 06:46:07;;;;;;;7.45;6.95;;;;;;;;;;4992181;28;20030;-56
2022/11/24 06:48:32;;;;;;;10.77;8.80;;;;;;;;;;4992318;28;20085;-54
2022/11/24 06:50:59;;;;;;;7.97;7.38;;;;;;;;;;4990246;28;20087;-57
2022/11/24 06:53:24;;;;;;;8.85;7.97;;;;;;;;;;4993005;28;20045;-54
2022/11/24 06:55:51;;;;;;;10.15;9.35;;;;;;;;;;4989374;28;20741;-57
2022/11/24 06:58:16;;;;;;;7.80;7.10;;;;;;;;;;4991032;28;20030;-56
2022/11/24 07:00:41;;;;;;;7.57;7.07;;;;;;;;;;4993107;28;20859;-55
2022/11/24 07:03:14;;;;;;;7.85;7.35;;;;;;;;;;4976563;28;20838;-55
2022/11/24 07:05:40;;;;;;;8.38;7.68;;;;;;;;;;4992419;28;20034;-55
2022/11/24 07:08:05;;;;;;;8.30;7.70;;;;;;;;;;4990251;28;20040;-56
2022/11/24 07:10:30;;;;;;;9.02;8.32;;;;;;;;;;4993541;28;20037;-56
2022/11/24 07:12:56;;;;;;;21.60;8.25;;;;;;;;;;4992308;28;20542;-57
2022/11/24 07:15:21;;;;;;;8.27;7.68;;;;;;;;;;4994042;28;20686;-55
2022/11/24 07:17:46;;;;;;;9.93;9.05;;;;;;;;;;4996299;28;20034;-58
2022/11/24 07:20:12;;;;;;;8.57;7.97;;;;;;;;;;4993394;28;20022;-57
2022/11/24 07:22:37;;;;;;;8.20;7.60;;;;;;;;;;4994789;28;20551;-55
2022/11/24 07:25:06;;;;;;;8.38;7.65;;;;;;;;;;4996516;28;20125;-57
2022/11/24 07:27:32;;;;;;;7.90;7.35;;;;;;;;;;4991367;28;20454;-56
2022/11/24 07:29:58;;;;;;;8.85;8.25;;;;;;;;;;4992045;28;20057;-54
2022/11/24 07:32:23;;;;;;;8.75;8.05;;;;;;;;;;4992497;28;20476;-57
2022/11/24 07:34:48;;;;;;;7.35;6.85;;;;;;;;;;4992179;28;20388;-56
2022/11/24 07:37:14;;;;;;;8.00;7.50;;;;;;;;;;4993438;28;20438;-56
2022/11/24 07:39:39;;;;;;;7.30;6.80;;;;;;;;;;4990916;28;20041;-56
2022/11/24 07:42:05;;;;;;;7.97;7.43;;;;;;;;;;4994264;28;20911;-57
2022/11/24 07:44:30;;;;;;;9.80;7.40;;;;;;;;;;4995525;28;20117;-56
2022/11/24 07:46:56;;;;;;;8.45;7.85;;;;;;;;;;4996030;28;20093;-58
2022/11/24 07:49:21;;;;;;;8.45;7.75;;;;;;;;;;4994947;28;20492;-58
2022/11/24 07:51:47;;;;;;;7.85;7.25;;;;;;;;;;4992293;28;20150;-56
2022/11/24 07:54:12;;;;;;;7.47;6.97;;;;;;;;;;4991554;28;20119;-56
2022/11/24 07:56:38;;;;;;;7.85;7.32;;;;;;;;;;4994453;28;20535;-56
2022/11/24 07:59:03;;;;;;;9.20;7.55;;;;;;;;;;4994426;28;20664;-57
2022/11/24 08:01:28;;;;;;;8.25;7.65;;;;;;;;;;4994234;28;20066;-54
2022/11/24 08:03:54;;;;;;;8.95;8.25;;;;;;;;;;4991610;28;20045;-56
2022/11/24 08:06:20;;;;;;;7.13;6.63;;;;;;;;;;4993504;28;20092;-56
2022/11/24 08:08:45;;;;;;;11.55;7.32;;;;;;;;;;4989920;28;20113;-55
2022/11/24 08:11:13;;;;;;;8.55;7.95;;;;;;;;;;4995166;28;20065;-57
2022/11/24 08:13:39;;;;;;;8.68;7.97;;;;;;;;;;4995533;28;20093;-57
2022/11/24 08:16:10;;;;;;;8.77;8.18;;;;;;;;;;4994316;28;20181;-55
2022/11/24 08:18:36;;;;;;;7.75;7.10;;;;;;;;;;4991730;28;20046;-56
2022/11/24 08:21:02;;;;;;;9.13;8.18;;;;;;;;;;4991651;28;20120;-56
2022/11/24 08:23:28;;;;;;;8.27;7.78;;;;;;;;;;4996002;28;20129;-56
2022/11/24 08:25:55;;;;;;;7.65;7.15;;;;;;;;;;4993132;28;20751;-56
2022/11/24 08:28:21;;;;;;;7.78;7.28;;;;;;;;;;4991650;28;20146;-57
2022/11/24 08:30:46;;;;;;;8.00;7.40;;;;;;;;;;4990513;28;20657;-58
2022/11/24 08:33:12;;;;;;;6.82;6.32;;;;;;;;;;4992785;28;20022;-58
2022/11/24 08:35:37;;;;;;;7.90;7.40;;;;;;;;;;4989644;28;20040;-52
2022/11/24 08:38:04;;;;;;;9.85;8.82;;;;;;;;;;4990164;28;20512;-50
2022/11/24 08:40:29;;;;;;;7.75;7.25;;;;;;;;;;4992506;28;20415;-52
2022/11/24 08:42:59;;;;;;;9.35;8.68;;;;;;;;;;4993659;28;20034;-52
2022/11/24 08:45:25;;;;;;;7.28;6.78;;;;;;;;;;4995294;28;20401;-52
2022/11/24 08:47:54;;;;;;;7.72;7.22;;;;;;;;;;4990921;28;20364;-54
2022/11/24 08:50:21;;;;;;;8.02;7.53;;;;;;;;;;4993475;28;20068;-53
2022/11/24 08:52:46;;;;;;;8.60;7.90;;;;;;;;;;4992084;28;20112;-52
2022/11/24 08:55:12;;;;;;;11.65;9.05;;;;;;;;;;4992166;28;20420;-51
2022/11/24 08:57:37;;;;;;;7.75;7.22;;;;;;;;;;4993479;28;20104;-51
2022/11/24 09:00:04;;;;;;;8.75;8.20;;;;;;;;;;4993328;28;20046;-53
2022/11/24 09:02:30;;;;;;;8.32;7.72;;;;;;;;;;4991441;28;20026;-50
2022/11/24 09:04:55;;;;;;;8.55;7.97;;;;;;;;;;4993145;28;20472;-52
2022/11/24 09:07:20;;;;;;;8.30;7.80;;;;;;;;;;4994721;28;20022;-53
2022/11/24 09:09:46;;;;;;;9.55;8.75;;;;;;;;;;4993260;28;20400;-52
2022/11/24 09:12:11;;;;;;;9.27;8.57;;;;;;;;;;4992095;28;20494;-52
2022/11/24 09:14:36;;;;;;;8.23;7.72;;;;;;;;;;4992611;28;20095;-51
2022/11/24 09:17:02;;;;;;;9.32;8.73;;;;;;;;;;4990006;28;20301;-53
2022/11/24 09:19:27;;;;;;;8.85;8.20;;;;;;;;;;4989055;28;20026;-55
2022/11/24 09:21:52;;;;;;;9.18;8.57;;;;;;;;;;4992463;28;20148;-55
2022/11/24 09:24:18;;;;;;;8.63;8.02;;;;;;;;;;4991894;28;20038;-51
2022/11/24 09:26:44;;;;;;;8.82;8.25;;;;;;;;;;4992537;28;20100;-55
2022/11/24 09:29:09;;;;;;;9.32;8.63;;;;;;;;;;4993422;28;20069;-51
2022/11/24 09:31:37;;;;;;;9.38;8.70;;;;;;;;;;4989692;28;20663;-53
2022/11/24 09:34:05;;;;;;;9.23;8.63;;;;;;;;;;4992974;28;20602;-51
2022/11/24 09:36:31;;;;;;;10.07;9.43;;;;;;;;;;4992038;28;20193;-53
2022/11/24 09:38:57;;;;;;;8.75;8.15;;;;;;;;;;4993757;28;20081;-53
2022/11/24 09:41:56;;;;;;;9.25;8.65;;;;;;;;;;4992209;28;20267;-50
2022/11/24 09:44:36;;;;;;;9.45;8.80;;;;;;;;;;4993941;28;20034;-54
2022/11/24 09:47:22;;;;;;;8.68;8.07;;;;;;;;;;4991823;28;20026;-53
2022/11/24 09:49:49;;;;;;;9.30;8.60;;;;;;;;;;4992027;28;20040;-54
2022/11/24 09:52:21;;;;;;;8.50;7.90;;;;;;;;;;4991510;28;20038;-51
2022/11/24 09:54:54;;;;;;;10.48;8.95;;;;;;;;;;4999073;28;20041;-54
2022/11/24 09:57:23;;;;;;;7.72;7.22;;;;;;;;;;4993860;28;20022;-54
2022/11/24 09:59:48;;;;;;;8.80;8.18;;;;;;;;;;4993078;28;20092;-54
2022/11/24 10:02:14;;;;;;;9.00;8.27;;;;;;;;;;4991961;28;20030;-53
2022/11/24 10:04:43;;;;;;;8.07;7.43;;;;;;;;;;4992991;28;20034;-53
2022/11/24 10:07:26;;;;;;;7.53;7.03;;;;;;;;;;4991876;28;20121;-53
2022/11/24 10:10:10;;;;;;;9.68;9.00;;;;;;;;;;4991138;28;20044;-53
2022/11/24 10:13:03;;;;;;;12.10;8.65;;;;;;;;;;4994068;28;20558;-54
2022/11/24 10:15:52;;;;;;;8.18;7.68;;;;;;;;;;4993948;28;20437;-53
2022/11/24 10:18:44;;;;;;;8.07;7.53;;;;;;;;;;4992362;28;20352;-53
2022/11/24 10:22:03;;;;;;;7.57;7.07;;;;;;;;;;4989662;28;20679;-51
2022/11/24 10:25:00;;;;;;;9.50;8.73;;;;;;;;;;4940426;28;20035;-60
2022/11/24 10:27:32;;;;;;;9.63;8.73;;;;;;;;;;4992157;28;20337;-61
2022/11/24 10:29:59;;;;;;;7.88;7.38;;;;;;;;;;4990410;28;20325;-60
2022/11/24 10:32:30;;;;;;;8.73;7.95;;;;;;;;;;4990273;28;20528;-61
2022/11/24 10:35:01;;;;;;;8.68;7.97;;;;;;;;;;4993468;28;20028;-61
2022/11/24 10:37:39;;;;;;;8.43;7.82;;;;;;;;;;4978428;28;20447;-61
2022/11/24 10:40:34;;;;;;;7.35;6.85;;;;;;;;;;4990255;28;20387;-60
2022/11/24 10:42:59;;;;;;;8.60;7.93;;;;;;;;;;4981843;28;20038;-60
2022/11/24 10:45:27;;;;;;;7.95;7.20;;;;;;;;;;4988368;28;20034;-60
2022/11/24 10:47:52;;;;;;;7.03;6.53;;;;;;;;;;4997024;28;20022;-60
2022/11/24 10:50:23;;;;;;;9.70;7.75;;;;;;;;;;4998198;28;20075;-60
2022/11/24 10:53:04;;;;;;;;;;;;;;;;;;4992960;28;20111;-60
2022/11/24 10:55:54;;;;;;;8.63;8.02;;;;;;;;;;4998322;28;19918;-61
2022/11/24 10:58:34;;;;;;;8.68;8.02;;;;;;;;;;4993086;28;20365;-61
2022/11/24 11:01:17;;;;;;;9.30;8.70;;;;;;;;;;4992110;28;20658;-60
2022/11/24 11:03:54;;;;;;;9.15;8.55;;;;;;;;;;4995539;28;20025;-60
2022/11/24 11:06:25;;;;;;;8.15;7.65;;;;;;;;;;4997090;28;20502;-60
2022/11/24 11:09:05;;;;;;;9.35;8.75;;;;;;;;;;4994087;28;20416;-59
2022/11/24 11:11:31;;;;;;;9.32;8.63;;;;;;;;;;4995093;28;20033;-60
2022/11/24 11:13:58;;;;;;;9.48;8.88;;;;;;;;;;4992902;28;20041;-60
2022/11/24 11:16:25;;;;;;;9.75;9.05;;;;;;;;;;4999266;28;20117;-60
2022/11/24 11:18:52;;;;;;;9.20;8.60;;;;;;;;;;4995841;28;20042;-60
2022/11/24 11:21:34;;;;;;;10.77;10.07;;;;;;;;;;4997193;28;20037;-59
2022/11/24 11:24:02;;;;;;;9.30;8.70;;;;;;;;;;4997660;28;20040;-62
2022/11/24 11:26:36;;;;;;;9.30;8.70;;;;;;;;;;4994780;28;20659;-61
2022/11/24 11:29:09;;;;;;;8.20;7.70;;;;;;;;;;4994672;28;20065;-61
2022/11/24 11:31:37;;;;;;;8.95;8.35;;;;;;;;;;4993861;28;20064;-60
2022/11/24 11:34:08;;;;;;;8.25;7.72;;;;;;;;;;4995049;28;20037;-60
2022/11/24 11:36:37;;;;;;;8.98;8.23;;;;;;;;;;4994241;28;20092;-61
2022/11/24 11:39:03;;;;;;;7.90;7.40;;;;;;;;;;4998677;28;20129;-61
2022/11/24 11:41:35;;;;;;;8.00;7.40;;;;;;;;;;4996399;28;20557;-61
2022/11/24 11:44:14;;;;;;;8.48;7.95;;;;;;;;;;4995508;28;20141;-61
2022/11/24 11:46:42;;;;;;;8.60;8.05;;;;;;;;;;4996529;28;20119;-61
2022/11/24 11:49:11;;;;;;;9.35;8.20;;;;;;;;;;4995816;28;20105;-60
2022/11/24 11:51:58;;;;;;;8.93;8.23;;;;;;;;;;4997062;28;20742;-60
2022/11/24 11:54:28;;;;;;;8.13;7.53;;;;;;;;;;4994471;28;20293;-61
2022/11/24 11:57:23;;;;;;;8.75;8.00;;;;;;;;;;4994835;28;21407;-60
2022/11/24 11:59:57;;;;;;;8.07;7.47;;;;;;;;;;4991592;28;20049;-60
2022/11/24 12:03:03;;;;;;;7.95;7.40;;;;;;;;;;4996695;28;20409;-61
2022/11/24 12:05:46;;;;;;;7.43;6.93;;;;;;;;;;4995058;28;20029;-61
2022/11/24 12:08:34;;;;;;;9.05;8.35;;;;;;;;;;4994415;28;20470;-60
2022/11/24 12:11:35;;;;;;;8.15;7.65;;;;;;;;;;4974286;28;20053;-60
2022/11/24 12:14:19;;;;;;;;;;;;;;;;;;4995158;28;20112;-60
2022/11/24 12:17:01;;;;;;;8.20;7.60;;;;;;;;;;4995259;28;19918;-60
2022/11/24 12:19:34;;;;;;;12.68;8.77;;;;;;;;;;4996354;28;20133;-61
2022/11/24 12:22:10;;;;;;;11.20;8.00;;;;;;;;;;4994045;28;20034;-60
2022/11/24 12:24:56;;;;;;;10.10;9.40;;;;;;;;;;4990961;28;20046;-60
2022/11/24 12:27:39;;;;;;;9.23;8.63;;;;;;;;;;4996788;28;20034;-60
2022/11/24 12:30:11;;;;;;;9.68;9.07;;;;;;;;;;4996837;28;20048;-60
2022/11/24 12:32:40;;;;;;;9.00;8.40;;;;;;;;;;4997322;28;20061;-60
2022/11/24 12:35:05;;;;;;;9.07;8.48;;;;;;;;;;4994063;28;20057;-60
2022/11/24 12:37:33;;;;;;;10.27;8.52;;;;;;;;;;4995477;28;20119;-61
2022/11/24 12:40:22;;;;;;;9.20;8.60;;;;;;;;;;4981025;28;20049;-62
2022/11/24 12:43:00;;;;;;;9.60;8.90;;;;;;;;;;4993078;28;20022;-61
2022/11/24 12:45:48;;;;;;;10.25;9.60;;;;;;;;;;4991746;28;20041;-61
2022/11/24 12:48:29;;;;;;;9.88;9.27;;;;;;;;;;4995907;28;20029;-61
2022/11/24 12:50:56;;;;;;;11.77;10.88;;;;;;;;;;4994406;28;20050;-61
2022/11/24 12:53:25;;;;;;;12.13;11.10;;;;;;;;;;4992202;28;20034;-62
2022/11/24 12:55:52;;;;;;;12.55;11.75;;;;;;;;;;4994220;28;20076;-62
2022/11/24 12:58:38;;;;;;;12.88;11.98;;;;;;;;;;4995678;28;20483;-61
2022/11/24 13:01:20;;;;;;;11.85;11.10;;;;;;;;;;4991604;28;20160;-62
2022/11/24 13:04:18;;;;;;;12.85;12.05;;;;;;;;;;4994077;28;20253;-60
2022/11/24 13:06:52;;;;;;;11.57;10.88;;;;;;;;;;4994966;28;20334;-61
2022/11/24 13:09:17;;;;;;;10.70;10.07;;;;;;;;;;4994116;28;20029;-61
2022/11/24 13:11:53;;;;;;;11.82;10.98;;;;;;;;;;4990745;28;20566;-61
2022/11/24 13:14:23;;;;;;;12.88;12.07;;;;;;;;;;4994980;28;20120;-62
2022/11/24 13:16:52;;;;;;;13.85;13.05;;;;;;;;;;4989394;28;20041;-61
2022/11/24 13:19:23;;;;;;;12.88;12.13;;;;;;;;;;4990781;28;20022;-61
2022/11/24 13:22:04;;;;;;;14.10;13.27;;;;;;;;;;4992967;28;20340;-61
2022/11/24 13:24:32;;;;;;;13.13;12.32;;;;;;;;;;4989438;28;20038;-60
2022/11/24 13:27:18;;;;;;;13.43;12.63;;;;;;;;;;4994486;28;20025;-61
2022/11/24 13:29:48;;;;;;;14.05;13.25;;;;;;;;;;4989042;28;20169;-60
2022/11/24 13:32:13;;;;;;;13.80;13.00;;;;;;;;;;4991028;28;20101;-61
2022/11/24 13:34:39;;;;;;;14.15;13.05;;;;;;;;;;4991918;28;20598;-61
2022/11/24 13:37:26;;;;;;;14.20;13.30;;;;;;;;;;4995820;28;20030;-61
2022/11/24 13:39:55;;;;;;;12.23;11.52;;;;;;;;;;4992999;28;20079;-62
2022/11/24 13:42:25;;;;;;;13.80;12.80;;;;;;;;;;4993327;28;20768;-61
2022/11/24 13:44:51;;;;;;;14.23;13.30;;;;;;;;;;4992852;28;20057;-61
2022/11/24 13:47:31;;;;;;;14.40;13.40;;;;;;;;;;4993782;28;20060;-61
2022/11/24 13:49:57;;;;;;;14.63;13.82;;;;;;;;;;4990681;28;20535;-61
2022/11/24 13:52:34;;;;;;;14.15;13.25;;;;;;;;;;4993384;28;20041;-60
2022/11/24 13:55:19;;;;;;;16.20;14.73;;;;;;;;;;4990199;28;20058;-61
2022/11/24 13:57:48;;;;;;;13.05;12.30;;;;;;;;;;4990328;28;20320;-61
2022/11/24 14:00:30;;;;;;;12.85;12.15;;;;;;;;;;4993898;28;20017;-60
2022/11/24 14:03:14;;;;;;;13.82;12.93;;;;;;;;;;4990002;28;20040;-60
2022/11/24 14:05:46;;;;;;;13.50;12.70;;;;;;;;;;4990960;28;20553;-61
2022/11/24 14:08:18;;;;;;;15.63;14.73;;;;;;;;;;4988893;28;20041;-60
2022/11/24 14:10:44;;;;;;;13.50;12.70;;;;;;;;;;4991587;28;20140;-60
2022/11/24 14:13:19;;;;;;;16.10;15.05;;;;;;;;;;4990458;28;20423;-60
2022/11/24 14:16:17;;;;;;;14.02;12.90;;;;;;;;;;4992230;28;20026;-61
2022/11/24 14:18:47;;;;;;;13.90;13.00;;;;;;;;;;4991283;28;20034;-61
2022/11/24 14:21:19;;;;;;;13.25;12.45;;;;;;;;;;5000548;28;20031;-61
2022/11/24 14:23:57;;;;;;;14.57;13.68;;;;;;;;;;4996733;28;20038;-61
2022/11/24 14:26:32;;;;;;;13.00;12.20;;;;;;;;;;4996448;28;20101;-60
2022/11/24 14:29:06;;;;;;;11.40;10.70;;;;;;;;;;4995376;28;20526;-60
2022/11/24 14:31:32;;;;;;;11.80;11.10;;;;;;;;;;4994579;28;20655;-61
2022/11/24 14:34:10;;;;;;;11.02;10.32;;;;;;;;;;4996433;28;20726;-60
2022/11/24 14:36:36;;;;;;;13.07;12.18;;;;;;;;;;4997850;28;20472;-61
2022/11/24 14:39:01;;;;;;;10.95;10.30;;;;;;;;;;5000522;28;20044;-61
2022/11/24 14:41:27;;;;;;;10.05;9.45;;;;;;;;;;4992546;28;20038;-60
2022/11/24 14:44:07;;;;;;;11.10;9.25;;;;;;;;;;4996225;28;20038;-61
2022/11/24 14:46:34;;;;;;;12.00;10.50;;;;;;;;;;4990828;28;20482;-61
2022/11/24 14:49:01;;;;;;;9.45;8.85;;;;;;;;;;4994003;28;20045;-61
2022/11/24 14:51:32;;;;;;;9.40;8.80;;;;;;;;;;4994941;28;20038;-61
2022/11/24 14:54:00;;;;;;;9.43;8.70;;;;;;;;;;4998362;28;20042;-61